Time;durP1;ratioP1;P1;durP2;ratioP2;P2;SDS_P1;SDS_P2;PMS_P1;PMS_P2;Temp;Humidity;BMP_temperature;BMP_pressure;BME280_temperature;BME280_humidity;BME280_pressure;Samples;Min_cycle;Max_cycle;Signal;HPM_P1;HPM_P2
2021/05/27 00:01:28;;;;;;;6.73;5.50;;;8.90;99.90;;;;;;494045;241;28141;-74
2021/05/27 00:03:29;;;;;;;7.77;5.07;;;8.80;99.90;;;;;;494090;241;27611;-74
2021/05/27 00:05:30;;;;;;;9.43;6.40;;;8.80;99.90;;;;;;494079;241;27944;-74
2021/05/27 00:07:31;;;;;;;4.73;4.33;;;8.80;99.90;;;;;;494058;241;28149;-74
2021/05/27 00:09:33;;;;;;;5.87;5.27;;;8.80;99.90;;;;;;494204;241;27950;-74
2021/05/27 00:11:34;;;;;;;7.13;5.97;;;8.80;99.90;;;;;;494131;241;27979;-74
2021/05/27 00:13:35;;;;;;;5.80;5.30;;;8.80;99.90;;;;;;494067;241;28122;-73
2021/05/27 00:15:38;;;;;;;6.93;6.10;;;8.80;99.90;;;;;;494090;241;27951;-74
2021/05/27 00:17:38;;;;;;;6.40;5.33;;;8.80;99.90;;;;;;494091;241;27958;-74
2021/05/27 00:19:39;;;;;;;9.83;6.10;;;8.80;99.90;;;;;;494059;241;28607;-74
2021/05/27 00:21:40;;;;;;;7.80;6.87;;;8.90;99.90;;;;;;494090;239;28026;-73
2021/05/27 00:23:41;;;;;;;8.80;7.13;;;8.80;99.90;;;;;;494148;241;28497;-74
2021/05/27 00:25:43;;;;;;;7.90;6.20;;;8.80;99.90;;;;;;494100;241;28397;-74
2021/05/27 00:27:44;;;;;;;6.30;5.60;;;8.80;99.90;;;;;;494061;241;28451;-73
2021/05/27 00:29:45;;;;;;;6.90;6.30;;;8.70;99.90;;;;;;494055;241;28372;-73
2021/05/27 00:31:46;;;;;;;9.97;6.87;;;8.80;99.90;;;;;;494146;241;27856;-73
2021/05/27 00:33:48;;;;;;;9.93;6.43;;;8.80;99.90;;;;;;494176;241;27890;-74
2021/05/27 00:35:49;;;;;;;10.33;6.40;;;8.80;99.90;;;;;;494085;241;28114;-74
2021/05/27 00:37:50;;;;;;;13.97;7.33;;;8.70;99.90;;;;;;494180;241;27975;-73
2021/05/27 00:39:51;;;;;;;7.40;6.20;;;8.70;99.90;;;;;;494194;241;27808;-73
2021/05/27 00:41:53;;;;;;;5.43;4.93;;;8.70;99.90;;;;;;494220;237;28049;-74
2021/05/27 00:43:54;;;;;;;9.30;5.67;;;8.70;99.90;;;;;;494166;241;28609;-74
2021/05/27 00:45:55;;;;;;;6.80;6.10;;;8.70;99.90;;;;;;494169;241;28034;-74
2021/05/27 00:47:56;;;;;;;6.97;6.27;;;8.70;99.90;;;;;;494083;241;27845;-74
2021/05/27 00:49:58;;;;;;;6.50;5.90;;;8.70;99.90;;;;;;494100;241;27591;-73
2021/05/27 00:51:59;;;;;;;6.23;5.63;;;8.70;99.90;;;;;;494086;241;27860;-74
2021/05/27 00:54:00;;;;;;;9.27;5.77;;;8.60;99.90;;;;;;494097;241;27696;-74
2021/05/27 00:56:01;;;;;;;8.17;7.33;;;8.60;99.90;;;;;;494149;241;28350;-74
2021/05/27 00:58:03;;;;;;;8.60;5.40;;;8.60;99.90;;;;;;494136;241;28232;-74
2021/05/27 01:00:04;;;;;;;8.43;7.50;;;8.70;99.90;;;;;;494119;240;28426;-74
2021/05/27 01:02:05;;;;;;;8.70;7.80;;;8.70;99.90;;;;;;494071;241;28507;-74
2021/05/27 01:04:06;;;;;;;8.37;7.43;;;8.70;99.90;;;;;;493762;241;28405;-73
2021/05/27 01:06:08;;;;;;;8.03;6.60;;;8.60;99.90;;;;;;494084;241;28153;-73
2021/05/27 01:08:09;;;;;;;10.40;7.47;;;8.60;99.90;;;;;;494122;241;28050;-74
2021/05/27 01:10:10;;;;;;;6.83;6.13;;;8.60;99.90;;;;;;494188;241;28008;-74
2021/05/27 01:12:11;;;;;;;9.93;6.33;;;8.60;99.90;;;;;;494191;241;27937;-74
2021/05/27 01:14:13;;;;;;;12.43;8.30;;;8.60;99.90;;;;;;494157;241;27840;-74
2021/05/27 01:16:14;;;;;;;9.73;7.67;;;8.70;99.90;;;;;;494153;241;27828;-74
2021/05/27 01:18:15;;;;;;;7.33;6.70;;;8.60;99.90;;;;;;494208;241;28074;-74
2021/05/27 01:20:16;;;;;;;8.93;8.10;;;8.60;99.90;;;;;;494213;241;28035;-75
2021/05/27 01:22:18;;;;;;;11.00;8.33;;;8.50;99.90;;;;;;494087;239;28017;-74
2021/05/27 01:24:19;;;;;;;8.70;7.30;;;8.50;99.90;;;;;;494091;239;28443;-74
2021/05/27 01:26:20;;;;;;;13.13;9.40;;;8.50;99.90;;;;;;494087;241;27943;-73
2021/05/27 01:28:21;;;;;;;9.10;7.90;;;8.50;99.90;;;;;;494062;240;28151;-75
2021/05/27 01:30:23;;;;;;;9.07;7.70;;;8.40;99.90;;;;;;494102;241;28395;-74
2021/05/27 01:32:24;;;;;;;8.80;8.00;;;8.40;99.90;;;;;;494107;241;28184;-74
2021/05/27 01:34:25;;;;;;;10.50;9.40;;;8.40;99.90;;;;;;494152;241;28174;-74
2021/05/27 01:36:26;;;;;;;12.67;9.97;;;8.50;99.90;;;;;;494082;241;28482;-74
2021/05/27 01:38:28;;;;;;;8.67;7.77;;;8.40;99.90;;;;;;493860;241;28084;-74
2021/05/27 01:40:29;;;;;;;8.57;7.07;;;8.40;99.90;;;;;;494114;241;27744;-75
2021/05/27 01:42:30;;;;;;;9.27;8.37;;;8.40;99.90;;;;;;494083;241;27945;-74
2021/05/27 01:44:31;;;;;;;11.43;9.23;;;8.50;99.90;;;;;;494076;241;27701;-74
2021/05/27 01:46:33;;;;;;;10.80;8.27;;;8.50;99.90;;;;;;494150;241;27943;-74
2021/05/27 01:48:34;;;;;;;11.50;7.90;;;8.50;99.90;;;;;;494085;241;28683;-74
2021/05/27 01:50:35;;;;;;;11.03;9.50;;;8.40;99.90;;;;;;494049;241;27935;-74
2021/05/27 01:52:36;;;;;;;9.17;8.13;;;8.40;99.90;;;;;;494080;241;28115;-75
2021/05/27 01:54:38;;;;;;;13.57;9.63;;;8.40;99.90;;;;;;494127;237;27944;-74
2021/05/27 01:56:39;;;;;;;13.30;9.57;;;8.40;99.90;;;;;;494144;241;28178;-74
2021/05/27 01:58:40;;;;;;;9.27;8.37;;;8.30;99.90;;;;;;494172;241;28196;-74
2021/05/27 02:00:41;;;;;;;11.30;10.03;;;8.30;99.90;;;;;;494191;241;28533;-74
2021/05/27 02:02:43;;;;;;;13.73;9.40;;;8.30;99.90;;;;;;494181;241;28320;-74
2021/05/27 02:04:44;;;;;;;11.23;7.53;;;8.30;99.90;;;;;;494086;241;27586;-74
2021/05/27 02:06:45;;;;;;;13.03;9.90;;;8.40;99.90;;;;;;494066;241;27944;-74
2021/05/27 02:11:06;;;;;;;13.27;10.33;;;8.40;99.90;;;;;;494165;241;28050;-74
2021/05/27 02:13:07;;;;;;;15.20;12.10;;;8.30;99.90;;;;;;494150;241;28416;-74
2021/05/27 02:15:08;;;;;;;15.63;10.60;;;8.30;99.90;;;;;;494129;241;28372;-75
2021/05/27 02:17:10;;;;;;;11.40;10.20;;;8.30;99.90;;;;;;494054;241;28124;-74
2021/05/27 02:19:11;;;;;;;11.00;8.77;;;8.30;99.90;;;;;;494155;241;27954;-75
2021/05/27 02:21:12;;;;;;;16.00;10.90;;;8.30;99.90;;;;;;494180;241;27958;-74
2021/05/27 02:23:13;;;;;;;11.33;9.77;;;8.30;99.90;;;;;;494164;241;27990;-74
2021/05/27 02:25:15;;;;;;;12.00;10.23;;;8.30;99.90;;;;;;494095;241;28080;-73
2021/05/27 02:27:16;;;;;;;11.53;9.97;;;8.30;99.90;;;;;;494163;241;28110;-74
2021/05/27 02:29:17;;;;;;;14.90;12.60;;;8.30;99.90;;;;;;494073;241;28434;-74
2021/05/27 02:31:18;;;;;;;15.50;11.43;;;8.30;99.90;;;;;;494088;241;27922;-74
2021/05/27 02:33:20;;;;;;;18.30;12.60;;;8.30;99.90;;;;;;494080;241;28212;-74
2021/05/27 02:35:21;;;;;;;15.33;11.43;;;8.20;99.90;;;;;;494058;241;27961;-74
2021/05/27 02:37:22;;;;;;;18.27;12.13;;;8.20;99.90;;;;;;494077;241;27842;-74
2021/05/27 02:39:23;;;;;;;15.93;12.80;;;8.20;99.90;;;;;;494041;241;27957;-74
2021/05/27 02:41:25;;;;;;;15.53;10.90;;;8.20;99.90;;;;;;494090;241;27605;-74
2021/05/27 02:43:26;;;;;;;17.43;12.60;;;8.20;99.90;;;;;;494132;241;27974;-75
2021/05/27 02:45:27;;;;;;;16.27;13.20;;;8.10;99.90;;;;;;494171;237;27693;-74
2021/05/27 02:47:28;;;;;;;21.53;12.27;;;8.10;99.90;;;;;;494082;241;27872;-74
2021/05/27 02:49:30;;;;;;;12.77;10.67;;;8.10;99.90;;;;;;494063;241;28090;-74
2021/05/27 02:51:31;;;;;;;13.70;11.50;;;8.00;99.90;;;;;;494074;239;28462;-74
2021/05/27 02:53:32;;;;;;;10.00;9.00;;;8.10;99.90;;;;;;494136;241;28440;-74
2021/05/27 02:55:33;;;;;;;17.10;11.73;;;8.10;99.90;;;;;;494046;237;28081;-74
2021/05/27 02:57:35;;;;;;;12.60;10.17;;;8.10;99.90;;;;;;494022;237;27974;-74
2021/05/27 02:59:36;;;;;;;10.30;9.23;;;8.10;99.90;;;;;;494045;241;28041;-75
2021/05/27 03:01:37;;;;;;;15.00;9.50;;;8.20;99.90;;;;;;494044;241;27955;-74
2021/05/27 03:03:38;;;;;;;10.17;8.90;;;8.10;99.90;;;;;;494062;241;27745;-74
2021/05/27 03:05:40;;;;;;;10.93;9.40;;;8.20;99.90;;;;;;494078;241;27720;-74
2021/05/27 03:07:41;;;;;;;11.40;9.23;;;8.10;99.90;;;;;;494130;241;27877;-75
2021/05/27 03:09:42;;;;;;;14.10;10.10;;;8.10;99.90;;;;;;494160;241;27943;-74
2021/05/27 03:11:43;;;;;;;14.13;8.87;;;8.10;99.90;;;;;;494123;241;28390;-74
2021/05/27 03:13:45;;;;;;;10.67;8.40;;;8.10;99.90;;;;;;494147;241;28466;-74
2021/05/27 03:15:46;;;;;;;17.80;8.90;;;8.10;99.90;;;;;;494162;241;28548;-74
2021/05/27 03:17:47;;;;;;;12.03;8.63;;;8.20;99.90;;;;;;494123;241;27714;-74
2021/05/27 03:19:48;;;;;;;11.10;8.10;;;8.10;99.90;;;;;;494068;241;27939;-74
2021/05/27 03:21:50;;;;;;;9.27;7.73;;;8.10;99.90;;;;;;494071;237;27750;-74
2021/05/27 03:23:51;;;;;;;15.87;8.03;;;8.10;99.90;;;;;;494089;241;27825;-75
2021/05/27 03:25:52;;;;;;;9.83;7.50;;;8.10;99.90;;;;;;494146;237;27939;-74
2021/05/27 03:27:53;;;;;;;10.13;7.10;;;8.00;99.90;;;;;;494150;241;27859;-74
2021/05/27 03:29:55;;;;;;;10.67;7.93;;;8.00;99.90;;;;;;494174;241;27667;-74
2021/05/27 03:31:56;;;;;;;9.90;7.23;;;8.00;99.90;;;;;;494141;241;27976;-74
2021/05/27 03:33:57;;;;;;;6.80;6.10;;;8.00;99.90;;;;;;494173;241;27980;-74
2021/05/27 03:35:58;;;;;;;9.30;6.77;;;8.10;99.90;;;;;;494087;241;27605;-74
2021/05/27 03:38:00;;;;;;;9.77;7.80;;;8.10;99.90;;;;;;494074;241;28174;-74
2021/05/27 03:40:13;;;;;;;9.60;7.53;;;8.10;99.90;;;;;;494092;241;28043;-74
2021/05/27 03:42:14;;;;;;;21.10;8.77;;;8.10;99.90;;;;;;494037;241;28392;-74
2021/05/27 03:44:15;;;;;;;14.47;8.17;;;8.10;99.90;;;;;;494167;241;28326;-74
2021/05/27 03:46:17;;;;;;;7.67;6.90;;;8.10;99.90;;;;;;494130;241;28373;-74
2021/05/27 03:48:18;;;;;;;12.40;7.30;;;8.00;99.90;;;;;;494141;241;28672;-75
2021/05/27 03:50:19;;;;;;;12.07;7.77;;;8.10;99.90;;;;;;494147;241;28130;-74
2021/05/27 03:52:20;;;;;;;8.03;6.90;;;8.10;99.90;;;;;;494127;241;28118;-74
2021/05/27 03:54:22;;;;;;;10.10;7.37;;;8.10;99.90;;;;;;493871;241;28067;-75
2021/05/27 03:56:23;;;;;;;8.90;7.07;;;8.10;99.90;;;;;;494017;241;27909;-74
2021/05/27 04:00:45;;;;;;;8.07;7.27;;;8.10;99.90;;;;;;494035;241;28318;-74
2021/05/27 04:02:47;;;;;;;11.23;7.40;;;8.10;99.90;;;;;;494043;241;27960;-74
2021/05/27 04:07:08;;;;;;;10.33;7.17;;;8.10;99.90;;;;;;494085;241;28030;-74
2021/05/27 04:09:07;;;;;;;12.83;6.50;;;8.10;99.90;;;;;;493823;241;28068;-74
2021/05/27 04:11:08;;;;;;;7.47;6.50;;;8.10;99.90;;;;;;494051;241;28034;-74
2021/05/27 04:13:09;;;;;;;9.47;7.20;;;8.00;99.90;;;;;;494059;241;27547;-74
2021/05/27 04:15:24;;;;;;;7.03;6.23;;;8.00;99.90;;;;;;494099;241;28012;-75
2021/05/27 04:17:24;;;;;;;10.30;7.13;;;8.00;99.90;;;;;;493953;237;28069;-74
2021/05/27 04:19:25;;;;;;;13.73;7.50;;;8.00;99.90;;;;;;494088;241;27952;-74
2021/05/27 04:21:27;;;;;;;9.20;7.57;;;8.10;99.90;;;;;;494075;241;28536;-74
2021/05/27 04:23:35;;;;;;;10.00;8.23;;;8.00;99.90;;;;;;494066;241;28342;-74
2021/05/27 04:25:35;;;;;;;7.00;6.30;;;8.00;99.90;;;;;;493950;241;27608;-74
2021/05/27 04:27:36;;;;;;;6.67;5.43;;;8.10;99.90;;;;;;494074;241;27889;-74
2021/05/27 04:29:37;;;;;;;8.33;6.70;;;8.20;99.90;;;;;;494101;241;27950;-75
2021/05/27 04:31:39;;;;;;;12.40;7.40;;;8.10;99.90;;;;;;493991;241;28075;-74
2021/05/27 04:33:40;;;;;;;13.43;6.03;;;8.10;99.90;;;;;;494148;241;28102;-74
2021/05/27 04:35:41;;;;;;;6.77;6.17;;;8.10;99.90;;;;;;494118;241;27982;-75
2021/05/27 04:37:42;;;;;;;6.20;5.53;;;8.20;99.90;;;;;;494135;241;28050;-75
2021/05/27 04:39:44;;;;;;;9.47;7.20;;;8.30;99.90;;;;;;494106;239;28044;-75
2021/05/27 04:41:45;;;;;;;7.37;6.10;;;8.30;99.90;;;;;;493994;241;29352;-74
2021/05/27 04:43:53;;;;;;;6.70;6.00;;;8.30;99.90;;;;;;494037;241;28400;-73
2021/05/27 04:45:47;;;;;;;6.10;5.50;;;8.30;99.90;;;;;;493532;241;28618;-76
2021/05/27 04:47:49;;;;;;;8.53;5.60;;;8.30;99.90;;;;;;494091;241;28451;-74
2021/05/27 04:49:50;;;;;;;8.77;5.57;;;8.30;99.90;;;;;;493999;241;28490;-73
2021/05/27 04:51:51;;;;;;;8.90;5.47;;;8.40;99.90;;;;;;494052;241;27945;-74
2021/05/27 04:53:52;;;;;;;7.47;6.27;;;8.40;99.90;;;;;;494119;241;27987;-75
2021/05/27 04:55:54;;;;;;;14.33;6.70;;;8.40;99.90;;;;;;494139;241;28023;-75
2021/05/27 04:57:55;;;;;;;9.00;5.80;;;8.40;99.90;;;;;;494151;241;27784;-74
2021/05/27 04:59:56;;;;;;;9.03;6.27;;;8.40;99.90;;;;;;494101;241;27967;-74
2021/05/27 05:01:57;;;;;;;5.90;5.13;;;8.30;99.90;;;;;;494116;241;27750;-74
2021/05/27 05:03:59;;;;;;;5.87;5.33;;;8.40;99.90;;;;;;494063;241;27635;-74
2021/05/27 05:06:00;;;;;;;7.60;5.80;;;8.50;99.90;;;;;;494069;241;28005;-74
2021/05/27 05:08:01;;;;;;;11.00;6.47;;;8.50;99.90;;;;;;494164;241;27837;-74
2021/05/27 05:10:03;;;;;;;10.67;6.00;;;8.50;99.90;;;;;;494093;241;28072;-74
2021/05/27 05:12:04;;;;;;;7.33;5.50;;;8.50;99.90;;;;;;494098;241;27689;-74
2021/05/27 05:14:05;;;;;;;8.80;5.40;;;8.60;99.90;;;;;;494171;239;27893;-75
2021/05/27 05:16:06;;;;;;;8.83;5.23;;;8.70;99.90;;;;;;494129;241;28713;-74
2021/05/27 05:18:07;;;;;;;6.73;5.60;;;8.80;99.90;;;;;;494184;241;28146;-74
2021/05/27 05:20:09;;;;;;;7.80;5.93;;;8.70;99.90;;;;;;494178;241;28399;-74
2021/05/27 05:22:10;;;;;;;8.87;5.70;;;8.70;99.90;;;;;;494199;241;28252;-74
2021/05/27 05:24:11;;;;;;;6.37;5.20;;;8.70;99.90;;;;;;494136;241;28583;-74
2021/05/27 05:26:12;;;;;;;6.33;5.33;;;8.60;99.90;;;;;;494074;241;27983;-75
2021/05/27 05:28:14;;;;;;;6.30;5.37;;;8.80;99.90;;;;;;494106;241;28015;-75
2021/05/27 05:30:15;;;;;;;6.03;4.50;;;8.80;99.90;;;;;;493855;241;27599;-75
2021/05/27 05:32:16;;;;;;;6.10;4.90;;;8.80;99.90;;;;;;494092;241;27802;-74
2021/05/27 05:34:17;;;;;;;6.30;5.17;;;8.80;99.90;;;;;;494064;237;27631;-74
2021/05/27 05:36:19;;;;;;;6.73;4.87;;;8.90;99.90;;;;;;494078;241;27989;-75
2021/05/27 05:38:20;;;;;;;5.87;5.00;;;9.00;99.90;;;;;;494097;237;28016;-75
2021/05/27 05:40:21;;;;;;;9.17;5.43;;;9.00;99.90;;;;;;494103;241;28068;-75
2021/05/27 05:42:22;;;;;;;8.77;5.73;;;9.20;99.90;;;;;;494076;241;27917;-74
2021/05/27 05:44:24;;;;;;;7.63;5.27;;;9.30;99.90;;;;;;494109;239;27965;-74
2021/05/27 05:46:25;;;;;;;7.37;5.10;;;9.30;99.90;;;;;;494063;241;27933;-75
2021/05/27 05:48:26;;;;;;;8.63;6.10;;;9.40;99.90;;;;;;494068;241;27904;-75
2021/05/27 05:50:49;;;;;;;10.60;5.60;;;9.20;99.90;;;;;;494088;239;27751;-74
2021/05/27 05:52:47;;;;;;;13.10;6.17;;;9.20;99.90;;;;;;493821;241;28095;-74
2021/05/27 05:54:48;;;;;;;11.73;5.37;;;9.20;99.90;;;;;;494169;241;28076;-74
2021/05/27 05:56:49;;;;;;;6.63;4.90;;;9.20;99.90;;;;;;494016;237;28420;-74
2021/05/27 05:58:51;;;;;;;7.03;4.90;;;9.30;99.90;;;;;;494132;241;27964;-74
2021/05/27 06:00:52;;;;;;;8.70;5.63;;;9.50;99.90;;;;;;494173;241;27844;-75
2021/05/27 06:02:53;;;;;;;8.23;4.90;;;9.40;99.90;;;;;;494149;241;27962;-74
2021/05/27 06:04:54;;;;;;;4.60;4.20;;;9.30;99.90;;;;;;494191;240;27989;-74
2021/05/27 06:06:56;;;;;;;4.67;4.17;;;9.30;99.90;;;;;;494033;241;28529;-74
2021/05/27 06:08:57;;;;;;;8.23;5.37;;;9.40;99.90;;;;;;494063;241;28578;-74
2021/05/27 06:10:58;;;;;;;6.13;4.73;;;9.40;99.90;;;;;;494087;241;28325;-75
2021/05/27 06:12:59;;;;;;;6.67;5.30;;;9.30;99.90;;;;;;494064;241;28394;-75
2021/05/27 06:15:01;;;;;;;6.73;5.17;;;9.30;99.90;;;;;;494126;240;28335;-73
2021/05/27 06:17:02;;;;;;;9.17;5.00;;;9.40;99.90;;;;;;494148;241;28342;-73
2021/05/27 06:19:03;;;;;;;6.57;4.47;;;9.50;99.90;;;;;;494203;239;27836;-74
2021/05/27 06:21:04;;;;;;;6.87;4.70;;;9.70;99.90;;;;;;494206;241;27975;-75
2021/05/27 06:23:06;;;;;;;4.83;4.37;;;9.90;99.90;;;;;;494246;241;28009;-74
2021/05/27 06:25:07;;;;;;;6.37;5.73;;;9.80;99.90;;;;;;494213;237;28053;-73
2021/05/27 06:27:08;;;;;;;7.23;5.03;;;9.80;99.90;;;;;;494171;241;27935;-73
2021/05/27 06:29:09;;;;;;;7.00;5.27;;;9.80;99.90;;;;;;494066;241;27977;-74
2021/05/27 06:31:11;;;;;;;6.23;4.60;;;9.80;99.90;;;;;;494122;241;27860;-74
2021/05/27 06:33:12;;;;;;;8.93;4.73;;;9.70;99.90;;;;;;494073;241;27953;-73
2021/05/27 06:35:14;;;;;;;6.47;3.90;;;9.70;99.90;;;;;;494091;241;27975;-74
2021/05/27 06:37:14;;;;;;;5.30;4.47;;;9.80;99.90;;;;;;494091;241;28038;-74
2021/05/27 06:39:16;;;;;;;7.23;5.10;;;9.70;99.90;;;;;;494097;241;28060;-74
2021/05/27 06:41:20;;;;;;;6.57;4.37;;;9.80;99.90;;;;;;494136;241;28063;-74
2021/05/27 06:43:21;;;;;;;7.43;4.30;;;9.90;99.90;;;;;;494052;241;27974;-73
2021/05/27 06:45:22;;;;;;;4.40;4.00;;;9.90;99.90;;;;;;494099;241;28078;-74
2021/05/27 06:47:24;;;;;;;6.27;4.27;;;9.90;99.90;;;;;;494189;241;27984;-74
2021/05/27 06:49:25;;;;;;;9.30;4.53;;;10.00;99.90;;;;;;494180;237;27966;-74
2021/05/27 06:51:26;;;;;;;5.20;4.00;;;10.10;99.90;;;;;;494097;241;28011;-74
2021/05/27 06:53:27;;;;;;;6.33;4.20;;;10.20;99.90;;;;;;494197;241;28441;-74
2021/05/27 06:55:29;;;;;;;4.70;3.47;;;10.10;99.90;;;;;;494062;241;28396;-74
2021/05/27 06:57:30;;;;;;;6.23;4.30;;;10.10;99.90;;;;;;494196;241;28543;-74
2021/05/27 06:59:31;;;;;;;6.20;4.50;;;10.00;99.90;;;;;;494173;241;28009;-74
2021/05/27 07:01:32;;;;;;;4.83;4.30;;;10.00;99.90;;;;;;494169;241;28034;-74
2021/05/27 07:03:34;;;;;;;5.83;4.30;;;10.00;99.90;;;;;;494196;241;28094;-74
2021/05/27 07:05:35;;;;;;;7.90;4.57;;;10.10;99.90;;;;;;494092;241;28074;-74
2021/05/27 07:07:36;;;;;;;4.13;3.40;;;10.10;99.90;;;;;;494065;241;28218;-74
2021/05/27 07:09:39;;;;;;;9.00;4.40;;;10.20;99.90;;;;;;494090;241;27961;-74
2021/05/27 07:11:39;;;;;;;6.83;4.33;;;10.20;99.90;;;;;;493941;241;28062;-74
2021/05/27 07:13:40;;;;;;;3.60;3.30;;;10.20;99.90;;;;;;494089;241;28228;-74
2021/05/27 07:15:41;;;;;;;4.37;3.97;;;10.30;99.90;;;;;;494079;241;28127;-74
2021/05/27 07:17:42;;;;;;;5.67;3.83;;;10.30;99.90;;;;;;494031;241;28438;-74
2021/05/27 07:19:44;;;;;;;5.60;3.93;;;10.30;99.90;;;;;;494076;241;28566;-73
2021/05/27 07:21:45;;;;;;;5.30;3.70;;;10.30;99.90;;;;;;494136;241;28600;-73
2021/05/27 07:23:46;;;;;;;4.30;3.33;;;10.40;99.90;;;;;;494076;241;28118;-74
2021/05/27 07:25:47;;;;;;;6.40;4.20;;;10.50;99.90;;;;;;494055;241;28032;-74
2021/05/27 07:27:50;;;;;;;5.90;4.20;;;10.50;99.90;;;;;;494144;241;27976;-74
2021/05/27 07:29:50;;;;;;;5.07;3.27;;;10.50;99.90;;;;;;494001;241;27935;-74
2021/05/27 07:31:51;;;;;;;6.00;3.80;;;10.50;99.90;;;;;;494051;241;28095;-74
2021/05/27 07:33:52;;;;;;;3.60;3.30;;;10.60;99.90;;;;;;494091;237;28439;-74
2021/05/27 07:35:54;;;;;;;6.60;3.90;;;10.70;99.90;;;;;;494062;241;28281;-74
2021/05/27 07:37:55;;;;;;;4.87;3.43;;;10.60;99.90;;;;;;494116;241;28248;-74
2021/05/27 07:39:56;;;;;;;7.53;4.13;;;10.60;99.90;;;;;;494017;241;28140;-74
2021/05/27 07:41:57;;;;;;;6.83;3.63;;;10.60;99.90;;;;;;494131;237;28067;-74
2021/05/27 07:43:59;;;;;;;4.90;3.53;;;10.50;99.90;;;;;;494134;241;28582;-74
2021/05/27 07:46:00;;;;;;;7.33;4.40;;;10.60;99.90;;;;;;494169;241;28337;-74
2021/05/27 07:48:01;;;;;;;3.30;3.10;;;10.50;99.90;;;;;;494174;241;28691;-75
2021/05/27 07:50:03;;;;;;;12.47;3.80;;;10.50;99.90;;;;;;494176;241;28705;-74
2021/05/27 07:52:04;;;;;;;4.43;3.70;;;10.50;99.90;;;;;;494122;239;27962;-74
2021/05/27 07:54:05;;;;;;;6.70;3.90;;;10.50;99.90;;;;;;494152;241;28208;-75
2021/05/27 07:56:06;;;;;;;6.10;3.57;;;10.50;99.90;;;;;;494165;241;28063;-74
2021/05/27 07:58:08;;;;;;;4.10;3.70;;;10.40;99.90;;;;;;494118;241;28165;-73
2021/05/27 08:00:09;;;;;;;7.50;4.37;;;10.50;99.90;;;;;;494103;241;28131;-74
2021/05/27 08:02:10;;;;;;;5.40;4.40;;;10.50;99.90;;;;;;494086;241;28023;-74
2021/05/27 08:04:12;;;;;;;4.27;3.87;;;10.30;99.90;;;;;;494086;241;28192;-74
2021/05/27 08:06:13;;;;;;;4.57;4.17;;;10.40;99.90;;;;;;494082;241;27850;-74
2021/05/27 08:08:14;;;;;;;5.43;3.50;;;10.40;99.90;;;;;;494173;237;28846;-74
2021/05/27 08:10:15;;;;;;;4.43;3.70;;;10.40;99.90;;;;;;494161;241;28626;-74
2021/05/27 08:12:16;;;;;;;7.23;4.50;;;10.40;99.90;;;;;;494176;241;28585;-74
2021/05/27 08:14:18;;;;;;;9.70;4.20;;;10.50;99.90;;;;;;494184;241;28006;-74
2021/05/27 08:16:19;;;;;;;8.37;4.00;;;10.50;99.90;;;;;;494069;241;28022;-73
2021/05/27 08:18:20;;;;;;;6.17;3.37;;;10.60;99.90;;;;;;494057;239;28094;-74
2021/05/27 08:20:21;;;;;;;8.10;3.90;;;10.60;99.90;;;;;;494089;241;27909;-74
2021/05/27 08:22:23;;;;;;;5.17;3.37;;;10.60;99.90;;;;;;494077;241;28105;-74
2021/05/27 08:24:24;;;;;;;4.23;3.13;;;10.60;99.90;;;;;;494063;241;28123;-75
2021/05/27 08:26:25;;;;;;;3.60;3.20;;;10.70;99.90;;;;;;493843;241;27983;-74
2021/05/27 08:28:26;;;;;;;4.10;3.40;;;10.80;99.90;;;;;;494056;241;28082;-74
2021/05/27 08:30:28;;;;;;;6.00;2.97;;;11.00;99.90;;;;;;494036;241;28187;-73
2021/05/27 08:32:29;;;;;;;7.20;3.57;;;11.00;99.90;;;;;;494048;241;28757;-74
2021/05/27 08:34:30;;;;;;;3.40;3.10;;;11.20;99.90;;;;;;494055;241;28716;-74
2021/05/27 08:36:31;;;;;;;4.43;3.20;;;11.30;99.90;;;;;;494040;241;28674;-75
2021/05/27 08:38:34;;;;;;;4.93;3.33;;;;;;;;;;494048;241;28169;-74
2021/05/27 08:40:35;;;;;;;7.50;3.47;;;11.30;99.90;;;;;;494037;241;27299;-74
2021/05/27 08:42:36;;;;;;;3.30;3.00;;;11.30;99.90;;;;;;494146;241;28495;-74
2021/05/27 08:44:37;;;;;;;7.47;3.43;;;11.20;99.90;;;;;;494135;241;28860;-74
2021/05/27 08:46:39;;;;;;;3.90;3.50;;;11.20;99.90;;;;;;494037;239;28792;-74
2021/05/27 08:48:40;;;;;;;5.53;3.17;;;11.10;99.90;;;;;;494033;241;28885;-73
2021/05/27 08:50:44;;;;;;;7.27;3.63;;;11.00;99.90;;;;;;494062;241;28773;-74
2021/05/27 08:52:42;;;;;;;3.17;2.87;;;10.90;99.90;;;;;;493366;241;28285;-74
2021/05/27 08:54:44;;;;;;;3.40;3.10;;;10.80;99.90;;;;;;494057;239;28309;-74
2021/05/27 08:56:45;;;;;;;5.07;3.70;;;10.70;99.90;;;;;;494171;241;28229;-74
2021/05/27 08:58:48;;;;;;;4.40;3.60;;;;;;;;;;494170;241;28283;-74
2021/05/27 09:00:49;;;;;;;3.87;3.53;;;10.70;99.90;;;;;;494216;241;27648;-74
2021/05/27 09:02:50;;;;;;;7.77;3.60;;;10.70;99.90;;;;;;494059;241;28048;-74
2021/05/27 09:04:51;;;;;;;4.93;3.30;;;10.70;99.90;;;;;;494103;241;28087;-74
2021/05/27 09:06:52;;;;;;;9.00;3.63;;;10.70;99.90;;;;;;494129;241;28006;-74
2021/05/27 09:08:54;;;;;;;3.27;2.97;;;10.80;99.90;;;;;;494181;241;28098;-73
2021/05/27 09:10:56;;;;;;;6.00;4.10;;;10.90;99.90;;;;;;494170;239;28075;-73
2021/05/27 09:12:56;;;;;;;5.07;3.17;;;11.10;99.90;;;;;;494174;241;28217;-74
2021/05/27 09:14:57;;;;;;;6.03;3.40;;;11.10;99.90;;;;;;494123;241;28687;-75
2021/05/27 09:16:59;;;;;;;2.90;2.70;;;11.10;99.90;;;;;;494199;241;28053;-74
2021/05/27 09:19:00;;;;;;;7.13;3.37;;;11.00;99.90;;;;;;494076;237;28173;-74
2021/05/27 09:21:01;;;;;;;7.60;3.80;;;11.10;99.90;;;;;;494093;241;28563;-74
2021/05/27 09:23:02;;;;;;;6.93;4.33;;;11.20;99.90;;;;;;494085;241;28686;-73
2021/05/27 09:25:04;;;;;;;4.50;3.03;;;11.10;99.90;;;;;;494088;237;28791;-74
2021/05/27 09:27:05;;;;;;;5.27;3.10;;;11.00;99.90;;;;;;494109;241;28256;-74
2021/05/27 09:29:06;;;;;;;4.40;3.60;;;11.10;99.90;;;;;;494082;241;28347;-74
2021/05/27 09:31:07;;;;;;;4.63;3.70;;;11.20;99.90;;;;;;494094;241;28283;-74
2021/05/27 09:33:09;;;;;;;12.30;3.63;;;11.10;99.90;;;;;;494078;241;28292;-74
2021/05/27 09:35:10;;;;;;;6.33;3.30;;;11.00;99.90;;;;;;494160;241;28656;-74
2021/05/27 09:37:11;;;;;;;3.97;3.20;;;11.10;99.90;;;;;;494162;241;28243;-74
2021/05/27 09:39:12;;;;;;;5.23;3.60;;;11.10;99.90;;;;;;494042;241;28323;-74
2021/05/27 09:41:14;;;;;;;3.97;3.30;;;11.20;99.90;;;;;;494159;241;28336;-73
2021/05/27 09:43:15;;;;;;;4.37;3.90;;;11.30;99.90;;;;;;494186;241;28906;-74
2021/05/27 09:45:16;;;;;;;6.43;3.50;;;11.40;99.90;;;;;;494057;241;29414;-74
2021/05/27 09:47:17;;;;;;;5.47;3.60;;;11.60;99.90;;;;;;494087;241;28648;-74
2021/05/27 09:49:23;;;;;;;6.00;4.30;;;11.70;99.90;;;;;;494070;241;28645;-74
2021/05/27 09:51:20;;;;;;;4.10;3.50;;;11.60;99.90;;;;;;493707;237;28041;-74
2021/05/27 09:53:21;;;;;;;5.20;3.50;;;11.60;99.90;;;;;;494051;237;28553;-74
2021/05/27 09:55:22;;;;;;;5.70;4.20;;;11.60;99.90;;;;;;494160;241;28596;-74
2021/05/27 09:57:24;;;;;;;3.47;3.00;;;11.80;99.90;;;;;;494048;241;28912;-74
2021/05/27 09:59:25;;;;;;;4.50;3.83;;;12.10;99.90;;;;;;494099;241;28958;-73
2021/05/27 10:01:26;;;;;;;6.03;3.90;;;12.50;99.90;;;;;;494073;241;28610;-75
2021/05/27 10:03:28;;;;;;;5.37;3.40;;;12.80;99.90;;;;;;494076;241;28362;-73
2021/05/27 10:05:29;;;;;;;8.40;4.17;;;12.90;99.90;;;;;;494089;241;28500;-74
2021/05/27 10:07:30;;;;;;;6.60;3.93;;;12.80;99.90;;;;;;494097;241;28631;-74
2021/05/27 10:09:31;;;;;;;3.57;3.13;;;12.70;99.90;;;;;;494092;241;28706;-74
2021/05/27 10:11:32;;;;;;;6.07;3.73;;;12.70;99.90;;;;;;494110;241;28724;-74
2021/05/27 10:13:34;;;;;;;5.60;3.57;;;12.80;99.90;;;;;;494075;241;28304;-76
2021/05/27 10:15:35;;;;;;;3.20;2.80;;;12.90;99.90;;;;;;494189;241;28403;-74
2021/05/27 10:17:36;;;;;;;4.20;3.50;;;12.70;99.90;;;;;;494171;241;28281;-74
2021/05/27 10:19:37;;;;;;;3.20;3.00;;;12.60;99.90;;;;;;494160;241;28410;-74
2021/05/27 10:21:39;;;;;;;3.23;3.03;;;12.70;99.90;;;;;;494096;241;28546;-74
2021/05/27 10:23:40;;;;;;;4.40;3.13;;;13.20;99.90;;;;;;494096;241;28312;-74
2021/05/27 10:25:42;;;;;;;3.70;2.80;;;13.50;99.90;;;;;;494158;241;28418;-74
2021/05/27 10:27:43;;;;;;;3.60;3.20;;;13.30;99.90;;;;;;494048;241;28860;-74
2021/05/27 10:29:44;;;;;;;3.03;2.73;;;13.50;99.90;;;;;;494140;241;28526;-74
2021/05/27 10:31:47;;;;;;;4.47;3.07;;;13.50;99.90;;;;;;494143;241;29312;-74
2021/05/27 10:33:46;;;;;;;3.07;2.83;;;13.60;99.90;;;;;;494017;241;29315;-74
2021/05/27 10:35:48;;;;;;;3.93;2.50;;;13.40;99.90;;;;;;494147;241;29385;-74
2021/05/27 10:37:49;;;;;;;2.80;2.43;;;13.20;99.90;;;;;;494108;241;28845;-75
2021/05/27 10:39:50;;;;;;;2.60;2.40;;;13.30;99.90;;;;;;494037;241;28646;-75
2021/05/27 10:41:51;;;;;;;3.70;2.40;;;13.20;99.90;;;;;;494137;241;28576;-75